sensor_id;sensor_type;location;lat;lon;timestamp;pressure;altitude;pressure_sealevel;temperature;humidity
69689;BME280;56932;38.402;-96.176;2022-11-15T00:00:12;97986.97;;;20.46;21.88
69689;BME280;56932;38.402;-96.176;2022-11-15T00:02:38;97986.46;;;20.66;21.71
69689;BME280;56932;38.402;-96.176;2022-11-15T00:05:04;97993.15;;;20.27;22.04
69689;BME280;56932;38.402;-96.176;2022-11-15T00:07:29;97992.90;;;19.98;22.24
69689;BME280;56932;38.402;-96.176;2022-11-15T00:09:54;97993.47;;;20.34;22.02
69689;BME280;56932;38.402;-96.176;2022-11-15T00:12:20;97994.14;;;20.48;22.12
69689;BME280;56932;38.402;-96.176;2022-11-15T00:14:46;97996.77;;;19.98;22.54
69689;BME280;56932;38.402;-96.176;2022-11-15T00:17:11;97998.38;;;20.40;21.97
69689;BME280;56932;38.402;-96.176;2022-11-15T00:19:37;97998.77;;;20.39;21.91
69689;BME280;56932;38.402;-96.176;2022-11-15T00:22:02;98003.04;;;19.92;22.35
69689;BME280;56932;38.402;-96.176;2022-11-15T00:24:28;98007.37;;;20.46;21.86
69689;BME280;56932;38.402;-96.176;2022-11-15T00:26:53;98010.85;;;20.47;21.89
69689;BME280;56932;38.402;-96.176;2022-11-15T00:29:19;98017.37;;;20.49;22.28
69689;BME280;56932;38.402;-96.176;2022-11-15T00:31:44;98018.60;;;20.12;22.19
69689;BME280;56932;38.402;-96.176;2022-11-15T00:34:10;98019.65;;;20.14;22.05
69689;BME280;56932;38.402;-96.176;2022-11-15T00:36:36;98024.76;;;20.75;21.70
69689;BME280;56932;38.402;-96.176;2022-11-15T00:39:03;98024.70;;;20.22;22.13
69689;BME280;56932;38.402;-96.176;2022-11-15T00:41:27;98024.31;;;20.92;21.84
69689;BME280;56932;38.402;-96.176;2022-11-15T00:43:52;98024.59;;;19.76;22.37
69689;BME280;56932;38.402;-96.176;2022-11-15T00:46:18;98028.74;;;20.51;21.75
69689;BME280;56932;38.402;-96.176;2022-11-15T00:48:43;98029.60;;;20.51;21.93
69689;BME280;56932;38.402;-96.176;2022-11-15T00:51:09;98032.80;;;19.84;22.40
69689;BME280;56932;38.402;-96.176;2022-11-15T00:53:34;98036.89;;;20.52;22.13
69689;BME280;56932;38.402;-96.176;2022-11-15T00:56:00;98039.10;;;20.80;21.89
69689;BME280;56932;38.402;-96.176;2022-11-15T00:58:25;98037.15;;;20.65;21.98
69689;BME280;56932;38.402;-96.176;2022-11-15T01:00:51;98034.38;;;20.17;22.37
69689;BME280;56932;38.402;-96.176;2022-11-15T01:03:16;98033.87;;;20.36;22.30
69689;BME280;56932;38.402;-96.176;2022-11-15T01:05:42;98041.73;;;20.17;22.45
69689;BME280;56932;38.402;-96.176;2022-11-15T01:08:12;98041.71;;;20.11;22.52
69689;BME280;56932;38.402;-96.176;2022-11-15T01:10:33;98043.17;;;20.47;22.18
69689;BME280;56932;38.402;-96.176;2022-11-15T01:12:59;98049.31;;;20.00;22.52
69689;BME280;56932;38.402;-96.176;2022-11-15T01:15:24;98046.29;;;20.53;22.15
69689;BME280;56932;38.402;-96.176;2022-11-15T01:17:49;98052.88;;;20.34;22.28
69689;BME280;56932;38.402;-96.176;2022-11-15T01:20:15;98056.66;;;20.26;22.47
69689;BME280;56932;38.402;-96.176;2022-11-15T01:22:40;98058.31;;;20.73;22.03
69689;BME280;56932;38.402;-96.176;2022-11-15T01:25:05;98058.79;;;20.55;22.20
69689;BME280;56932;38.402;-96.176;2022-11-15T01:27:31;98064.35;;;20.12;22.48
69689;BME280;56932;38.402;-96.176;2022-11-15T01:29:56;98064.64;;;20.36;22.22
69689;BME280;56932;38.402;-96.176;2022-11-15T01:32:22;98068.60;;;20.48;22.33
69689;BME280;56932;38.402;-96.176;2022-11-15T01:34:47;98072.71;;;20.47;22.14
69689;BME280;56932;38.402;-96.176;2022-11-15T01:37:13;98074.82;;;20.80;22.10
69689;BME280;56932;38.402;-96.176;2022-11-15T01:39:39;98076.12;;;20.78;22.10
69689;BME280;56932;38.402;-96.176;2022-11-15T01:42:04;98075.32;;;20.51;22.28
69689;BME280;56932;38.402;-96.176;2022-11-15T01:44:39;98074.41;;;20.48;22.43
69689;BME280;56932;38.402;-96.176;2022-11-15T01:46:56;98078.46;;;20.45;22.40
69689;BME280;56932;38.402;-96.176;2022-11-15T01:49:22;98079.03;;;20.40;22.49
69689;BME280;56932;38.402;-96.176;2022-11-15T01:51:47;98081.03;;;20.65;22.46
69689;BME280;56932;38.402;-96.176;2022-11-15T01:54:15;98076.45;;;20.71;22.22
69689;BME280;56932;38.402;-96.176;2022-11-15T01:56:43;98079.60;;;19.41;22.86
69689;BME280;56932;38.402;-96.176;2022-11-15T01:59:07;98075.82;;;20.23;22.32
69689;BME280;56932;38.402;-96.176;2022-11-15T02:01:31;98073.32;;;20.23;22.60
69689;BME280;56932;38.402;-96.176;2022-11-15T02:03:58;98069.23;;;20.56;22.30
69689;BME280;56932;38.402;-96.176;2022-11-15T02:06:22;98065.78;;;20.46;22.35
69689;BME280;56932;38.402;-96.176;2022-11-15T02:08:46;98069.09;;;20.46;22.32
69689;BME280;56932;38.402;-96.176;2022-11-15T02:11:12;98074.80;;;19.54;23.10
69689;BME280;56932;38.402;-96.176;2022-11-15T02:13:37;98077.92;;;20.32;22.44
69689;BME280;56932;38.402;-96.176;2022-11-15T02:16:08;98079.54;;;19.77;22.86
69689;BME280;56932;38.402;-96.176;2022-11-15T02:18:32;98083.09;;;20.00;22.74
69689;BME280;56932;38.402;-96.176;2022-11-15T02:21:02;98084.65;;;20.18;22.54
69689;BME280;56932;38.402;-96.176;2022-11-15T02:25:54;98089.78;;;20.29;22.41
69689;BME280;56932;38.402;-96.176;2022-11-15T02:28:21;98088.93;;;19.38;22.95
69689;BME280;56932;38.402;-96.176;2022-11-15T02:30:41;98088.87;;;20.33;22.30
69689;BME280;56932;38.402;-96.176;2022-11-15T02:33:07;98094.49;;;20.39;22.20
69689;BME280;56932;38.402;-96.176;2022-11-15T02:35:33;98099.47;;;20.40;22.23
69689;BME280;56932;38.402;-96.176;2022-11-15T02:37:56;98099.73;;;20.21;22.39
69689;BME280;56932;38.402;-96.176;2022-11-15T02:40:26;98102.32;;;20.07;22.54
69689;BME280;56932;38.402;-96.176;2022-11-15T02:42:50;98102.25;;;19.97;22.63
69689;BME280;56932;38.402;-96.176;2022-11-15T02:45:13;98100.94;;;19.77;22.83
69689;BME280;56932;38.402;-96.176;2022-11-15T02:47:41;98103.22;;;20.79;22.18
69689;BME280;56932;38.402;-96.176;2022-11-15T02:50:04;98102.65;;;20.46;22.23
69689;BME280;56932;38.402;-96.176;2022-11-15T02:52:26;98103.99;;;20.54;22.56
69689;BME280;56932;38.402;-96.176;2022-11-15T02:54:54;98106.47;;;20.60;22.31
69689;BME280;56932;38.402;-96.176;2022-11-15T02:57:19;98105.84;;;20.31;22.55
69689;BME280;56932;38.402;-96.176;2022-11-15T03:02:18;98107.23;;;19.75;23.23
69689;BME280;56932;38.402;-96.176;2022-11-15T03:04:40;98110.60;;;19.74;23.06
69689;BME280;56932;38.402;-96.176;2022-11-15T03:07:05;98109.23;;;19.72;23.03
69689;BME280;56932;38.402;-96.176;2022-11-15T03:09:32;98111.10;;;20.26;22.58
69689;BME280;56932;38.402;-96.176;2022-11-15T03:11:54;98108.69;;;19.40;23.31
69689;BME280;56932;38.402;-96.176;2022-11-15T03:14:22;98106.11;;;19.00;23.63
69689;BME280;56932;38.402;-96.176;2022-11-15T03:16:46;98104.89;;;19.25;23.61
69689;BME280;56932;38.402;-96.176;2022-11-15T03:19:13;98107.22;;;19.31;23.56
69689;BME280;56932;38.402;-96.176;2022-11-15T03:21:33;98103.46;;;18.85;23.71
69689;BME280;56932;38.402;-96.176;2022-11-15T03:24:01;98104.12;;;18.96;23.65
69689;BME280;56932;38.402;-96.176;2022-11-15T03:26:25;98108.26;;;19.00;23.75
69689;BME280;56932;38.402;-96.176;2022-11-15T03:28:52;98108.34;;;18.78;23.94
69689;BME280;56932;38.402;-96.176;2022-11-15T03:31:16;98112.58;;;18.73;24.00
69689;BME280;56932;38.402;-96.176;2022-11-15T03:33:41;98112.26;;;19.17;23.88
69689;BME280;56932;38.402;-96.176;2022-11-15T03:36:06;98113.41;;;18.80;23.89
69689;BME280;56932;38.402;-96.176;2022-11-15T03:38:32;98117.81;;;18.76;23.90
69689;BME280;56932;38.402;-96.176;2022-11-15T03:41:00;98119.32;;;18.68;23.99
69689;BME280;56932;38.402;-96.176;2022-11-15T03:43:30;98119.96;;;18.52;24.05
69689;BME280;56932;38.402;-96.176;2022-11-15T03:45:53;98122.66;;;18.51;24.13
69689;BME280;56932;38.402;-96.176;2022-11-15T03:48:16;98125.00;;;18.47;24.14
69689;BME280;56932;38.402;-96.176;2022-11-15T03:50:40;98125.52;;;18.46;24.14
69689;BME280;56932;38.402;-96.176;2022-11-15T03:53:05;98124.85;;;18.44;24.13
69689;BME280;56932;38.402;-96.176;2022-11-15T03:55:32;98121.54;;;18.70;24.11
69689;BME280;56932;38.402;-96.176;2022-11-15T03:57:58;98119.58;;;18.44;24.09
69689;BME280;56932;38.402;-96.176;2022-11-15T04:00:22;98120.86;;;18.31;24.01
69689;BME280;56932;38.402;-96.176;2022-11-15T04:02:47;98118.85;;;18.68;23.89
69689;BME280;56932;38.402;-96.176;2022-11-15T04:05:13;98118.10;;;18.47;24.10
69689;BME280;56932;38.402;-96.176;2022-11-15T04:07:38;98117.75;;;18.30;24.27
69689;BME280;56932;38.402;-96.176;2022-11-15T04:10:05;98116.23;;;19.04;23.63
69689;BME280;56932;38.402;-96.176;2022-11-15T04:12:30;98114.00;;;19.15;23.38
69689;BME280;56932;38.402;-96.176;2022-11-15T04:14:55;98112.87;;;19.16;23.34
69689;BME280;56932;38.402;-96.176;2022-11-15T04:17:21;98115.38;;;19.34;23.22
69689;BME280;56932;38.402;-96.176;2022-11-15T04:19:46;98116.89;;;19.41;23.00
69689;BME280;56932;38.402;-96.176;2022-11-15T04:22:12;98119.79;;;19.79;22.75
69689;BME280;56932;38.402;-96.176;2022-11-15T04:24:37;98117.55;;;18.79;23.64
69689;BME280;56932;38.402;-96.176;2022-11-15T04:27:03;98125.35;;;19.33;23.25
69689;BME280;56932;38.402;-96.176;2022-11-15T04:29:28;98122.90;;;18.18;24.33
69689;BME280;56932;38.402;-96.176;2022-11-15T04:31:54;98123.31;;;19.72;23.12
69689;BME280;56932;38.402;-96.176;2022-11-15T04:34:19;98118.04;;;18.85;23.68
69689;BME280;56932;38.402;-96.176;2022-11-15T04:36:45;98116.95;;;19.83;22.73
69689;BME280;56932;38.402;-96.176;2022-11-15T04:39:10;98112.86;;;18.63;24.25
69689;BME280;56932;38.402;-96.176;2022-11-15T04:41:36;98114.72;;;18.11;25.32
69689;BME280;56932;38.402;-96.176;2022-11-15T04:44:02;98107.36;;;18.49;24.92
69689;BME280;56932;38.402;-96.176;2022-11-15T04:46:27;98107.19;;;18.33;25.15
69689;BME280;56932;38.402;-96.176;2022-11-15T04:48:53;98108.02;;;19.66;23.77
69689;BME280;56932;38.402;-96.176;2022-11-15T04:51:19;98105.28;;;19.84;23.58
69689;BME280;56932;38.402;-96.176;2022-11-15T04:53:44;98108.12;;;20.02;23.02
69689;BME280;56932;38.402;-96.176;2022-11-15T04:56:09;98108.76;;;20.29;22.82
69689;BME280;56932;38.402;-96.176;2022-11-15T04:58:35;98105.42;;;20.56;22.65
69689;BME280;56932;38.402;-96.176;2022-11-15T05:01:06;98107.56;;;19.79;23.11
69689;BME280;56932;38.402;-96.176;2022-11-15T05:03:26;98102.67;;;20.86;22.44
69689;BME280;56932;38.402;-96.176;2022-11-15T05:05:51;98101.82;;;20.60;22.71
69689;BME280;56932;38.402;-96.176;2022-11-15T05:08:17;98103.32;;;21.34;22.13
69689;BME280;56932;38.402;-96.176;2022-11-15T05:10:42;98110.84;;;21.08;22.36
69689;BME280;56932;38.402;-96.176;2022-11-15T05:13:08;98105.55;;;20.47;22.88
69689;BME280;56932;38.402;-96.176;2022-11-15T05:15:33;98108.15;;;21.13;22.35
69689;BME280;56932;38.402;-96.176;2022-11-15T05:17:59;98106.78;;;20.17;23.23
69689;BME280;56932;38.402;-96.176;2022-11-15T05:20:24;98102.55;;;19.98;23.37
69689;BME280;56932;38.402;-96.176;2022-11-15T05:22:50;98099.23;;;20.62;22.88
69689;BME280;56932;38.402;-96.176;2022-11-15T05:25:16;98098.22;;;21.01;22.57
69689;BME280;56932;38.402;-96.176;2022-11-15T05:27:41;98096.21;;;20.05;23.34
69689;BME280;56932;38.402;-96.176;2022-11-15T05:30:08;98095.86;;;20.64;22.93
69689;BME280;56932;38.402;-96.176;2022-11-15T05:32:33;98098.27;;;20.80;22.73
69689;BME280;56932;38.402;-96.176;2022-11-15T05:34:58;98100.15;;;21.22;22.57
69689;BME280;56932;38.402;-96.176;2022-11-15T05:37:23;98093.17;;;20.64;22.87
69689;BME280;56932;38.402;-96.176;2022-11-15T05:39:49;98098.45;;;20.56;22.91
69689;BME280;56932;38.402;-96.176;2022-11-15T05:42:15;98105.10;;;21.26;22.58
69689;BME280;56932;38.402;-96.176;2022-11-15T05:44:44;98102.53;;;20.90;23.00
69689;BME280;56932;38.402;-96.176;2022-11-15T05:47:07;98102.99;;;20.58;22.96
69689;BME280;56932;38.402;-96.176;2022-11-15T05:49:33;98106.70;;;20.58;22.94
69689;BME280;56932;38.402;-96.176;2022-11-15T05:51:57;98111.10;;;20.76;22.94
69689;BME280;56932;38.402;-96.176;2022-11-15T05:54:23;98117.81;;;20.28;23.14
69689;BME280;56932;38.402;-96.176;2022-11-15T05:56:47;98116.64;;;20.55;23.09
69689;BME280;56932;38.402;-96.176;2022-11-15T05:59:13;98117.44;;;20.80;22.93
69689;BME280;56932;38.402;-96.176;2022-11-15T06:01:39;98122.98;;;20.20;23.19
69689;BME280;56932;38.402;-96.176;2022-11-15T06:04:04;98117.80;;;20.20;23.17
69689;BME280;56932;38.402;-96.176;2022-11-15T06:06:30;98114.04;;;19.77;23.55
69689;BME280;56932;38.402;-96.176;2022-11-15T06:08:55;98114.28;;;19.93;23.40
69689;BME280;56932;38.402;-96.176;2022-11-15T06:11:21;98113.95;;;19.87;23.50
69689;BME280;56932;38.402;-96.176;2022-11-15T06:13:46;98110.93;;;20.39;22.94
69689;BME280;56932;38.402;-96.176;2022-11-15T06:16:12;98112.03;;;20.28;23.23
69689;BME280;56932;38.402;-96.176;2022-11-15T06:18:38;98113.48;;;19.65;23.59
69689;BME280;56932;38.402;-96.176;2022-11-15T06:21:03;98116.47;;;19.86;23.57
69689;BME280;56932;38.402;-96.176;2022-11-15T06:23:31;98117.45;;;19.84;23.37
69689;BME280;56932;38.402;-96.176;2022-11-15T06:25:57;98117.80;;;19.74;23.50
69689;BME280;56932;38.402;-96.176;2022-11-15T06:28:19;98118.92;;;20.34;23.18
69689;BME280;56932;38.402;-96.176;2022-11-15T06:30:45;98116.37;;;19.74;23.43
69689;BME280;56932;38.402;-96.176;2022-11-15T06:33:10;98112.50;;;19.95;23.47
69689;BME280;56932;38.402;-96.176;2022-11-15T06:35:36;98112.41;;;19.53;23.61
69689;BME280;56932;38.402;-96.176;2022-11-15T06:38:04;98114.97;;;19.73;23.40
69689;BME280;56932;38.402;-96.176;2022-11-15T06:40:27;98117.19;;;19.93;23.41
69689;BME280;56932;38.402;-96.176;2022-11-15T06:42:58;98117.23;;;19.92;23.39
69689;BME280;56932;38.402;-96.176;2022-11-15T06:45:18;98116.47;;;20.15;23.23
69689;BME280;56932;38.402;-96.176;2022-11-15T06:47:47;98118.52;;;19.75;23.51
69689;BME280;56932;38.402;-96.176;2022-11-15T06:50:09;98120.46;;;19.71;23.53
69689;BME280;56932;38.402;-96.176;2022-11-15T06:52:35;98123.29;;;19.77;23.48
69689;BME280;56932;38.402;-96.176;2022-11-15T06:55:00;98128.94;;;19.49;23.50
69689;BME280;56932;38.402;-96.176;2022-11-15T06:57:26;98132.69;;;20.17;23.31
69689;BME280;56932;38.402;-96.176;2022-11-15T06:59:51;98137.93;;;19.79;23.39
69689;BME280;56932;38.402;-96.176;2022-11-15T07:02:17;98138.67;;;19.62;23.35
69689;BME280;56932;38.402;-96.176;2022-11-15T07:04:42;98139.43;;;19.94;23.45
69689;BME280;56932;38.402;-96.176;2022-11-15T07:07:09;98143.51;;;19.73;23.62
69689;BME280;56932;38.402;-96.176;2022-11-15T07:09:34;98147.61;;;19.84;23.52
69689;BME280;56932;38.402;-96.176;2022-11-15T07:11:59;98147.01;;;19.87;23.49
69689;BME280;56932;38.402;-96.176;2022-11-15T07:14:25;98151.66;;;19.78;23.50
69689;BME280;56932;38.402;-96.176;2022-11-15T07:16:50;98155.70;;;19.96;23.36
69689;BME280;56932;38.402;-96.176;2022-11-15T07:19:16;98159.50;;;19.78;23.50
69689;BME280;56932;38.402;-96.176;2022-11-15T07:21:41;98162.94;;;19.84;23.44
69689;BME280;56932;38.402;-96.176;2022-11-15T07:24:07;98160.21;;;19.62;23.40
69689;BME280;56932;38.402;-96.176;2022-11-15T07:26:32;98160.03;;;19.59;23.41
69689;BME280;56932;38.402;-96.176;2022-11-15T07:28:58;98162.96;;;19.71;23.47
69689;BME280;56932;38.402;-96.176;2022-11-15T07:31:23;98161.26;;;19.40;23.54
69689;BME280;56932;38.402;-96.176;2022-11-15T07:33:49;98163.26;;;19.63;23.49
69689;BME280;56932;38.402;-96.176;2022-11-15T07:36:15;98163.09;;;19.55;23.55
69689;BME280;56932;38.402;-96.176;2022-11-15T07:38:40;98166.23;;;19.69;23.42
69689;BME280;56932;38.402;-96.176;2022-11-15T07:41:06;98164.37;;;19.42;23.61
69689;BME280;56932;38.402;-96.176;2022-11-15T07:43:31;98165.44;;;19.66;23.40
69689;BME280;56932;38.402;-96.176;2022-11-15T07:45:57;98160.92;;;19.50;23.52
69689;BME280;56932;38.402;-96.176;2022-11-15T07:48:23;98158.82;;;19.50;23.49
69689;BME280;56932;38.402;-96.176;2022-11-15T07:50:48;98159.19;;;19.82;23.43
69689;BME280;56932;38.402;-96.176;2022-11-15T07:53:13;98161.37;;;19.45;23.52
69689;BME280;56932;38.402;-96.176;2022-11-15T07:55:41;98164.90;;;19.39;23.53
69689;BME280;56932;38.402;-96.176;2022-11-15T07:58:06;98165.21;;;19.44;23.48
69689;BME280;56932;38.402;-96.176;2022-11-15T08:00:30;98164.36;;;19.70;23.46
69689;BME280;56932;38.402;-96.176;2022-11-15T08:03:02;98164.81;;;19.37;23.51
69689;BME280;56932;38.402;-96.176;2022-11-15T08:05:21;98164.97;;;19.00;23.60
69689;BME280;56932;38.402;-96.176;2022-11-15T08:07:47;98168.95;;;19.29;23.54
69689;BME280;56932;38.402;-96.176;2022-11-15T08:10:12;98174.48;;;19.30;23.50
69689;BME280;56932;38.402;-96.176;2022-11-15T08:12:38;98178.31;;;19.09;23.65
69689;BME280;56932;38.402;-96.176;2022-11-15T08:15:04;98180.69;;;19.15;23.58
69689;BME280;56932;38.402;-96.176;2022-11-15T08:17:29;98180.15;;;19.87;23.40
69689;BME280;56932;38.402;-96.176;2022-11-15T08:19:54;98177.82;;;19.19;23.53
69689;BME280;56932;38.402;-96.176;2022-11-15T08:22:20;98179.67;;;19.00;23.65
69689;BME280;56932;38.402;-96.176;2022-11-15T08:24:46;98172.21;;;19.42;23.52
69689;BME280;56932;38.402;-96.176;2022-11-15T08:27:11;98168.05;;;19.19;23.67
69689;BME280;56932;38.402;-96.176;2022-11-15T08:29:36;98169.24;;;19.04;23.58
69689;BME280;56932;38.402;-96.176;2022-11-15T08:32:02;98166.16;;;19.12;23.69
69689;BME280;56932;38.402;-96.176;2022-11-15T08:34:28;98161.89;;;19.28;23.56
69689;BME280;56932;38.402;-96.176;2022-11-15T08:36:53;98166.91;;;19.56;23.48
69689;BME280;56932;38.402;-96.176;2022-11-15T08:39:19;98176.61;;;19.22;23.58
69689;BME280;56932;38.402;-96.176;2022-11-15T08:41:44;98173.15;;;18.76;23.71
69689;BME280;56932;38.402;-96.176;2022-11-15T08:44:10;98166.85;;;18.99;23.73
69689;BME280;56932;38.402;-96.176;2022-11-15T08:46:36;98163.09;;;19.12;23.61
69689;BME280;56932;38.402;-96.176;2022-11-15T08:49:01;98158.67;;;19.24;23.66
69689;BME280;56932;38.402;-96.176;2022-11-15T08:51:27;98163.83;;;18.74;23.67
69689;BME280;56932;38.402;-96.176;2022-11-15T08:53:52;98163.54;;;19.01;23.66
69689;BME280;56932;38.402;-96.176;2022-11-15T08:56:18;98164.76;;;18.66;23.72
69689;BME280;56932;38.402;-96.176;2022-11-15T08:58:43;98171.75;;;18.64;23.71
69689;BME280;56932;38.402;-96.176;2022-11-15T09:01:15;98185.30;;;19.04;23.77
69689;BME280;56932;38.402;-96.176;2022-11-15T09:03:34;98189.07;;;19.02;23.57
69689;BME280;56932;38.402;-96.176;2022-11-15T09:06:00;98194.07;;;18.61;23.68
69689;BME280;56932;38.402;-96.176;2022-11-15T09:08:29;98192.25;;;19.05;23.73
69689;BME280;56932;38.402;-96.176;2022-11-15T09:10:51;98196.62;;;18.80;23.74
69689;BME280;56932;38.402;-96.176;2022-11-15T09:13:17;98199.05;;;19.12;23.64
69689;BME280;56932;38.402;-96.176;2022-11-15T09:15:42;98201.68;;;18.61;23.88
69689;BME280;56932;38.402;-96.176;2022-11-15T09:18:07;98203.27;;;18.65;23.83
69689;BME280;56932;38.402;-96.176;2022-11-15T09:20:33;98197.76;;;18.99;23.70
69689;BME280;56932;38.402;-96.176;2022-11-15T09:23:00;98195.14;;;18.99;23.70
69689;BME280;56932;38.402;-96.176;2022-11-15T09:25:24;98199.00;;;18.77;23.68
69689;BME280;56932;38.402;-96.176;2022-11-15T09:27:50;98207.13;;;18.92;23.73
69689;BME280;56932;38.402;-96.176;2022-11-15T09:30:16;98213.93;;;18.98;23.67
69689;BME280;56932;38.402;-96.176;2022-11-15T09:32:41;98218.52;;;18.75;23.86
69689;BME280;56932;38.402;-96.176;2022-11-15T09:35:07;98223.04;;;18.78;23.81
69689;BME280;56932;38.402;-96.176;2022-11-15T09:37:32;98223.83;;;18.84;23.75
69689;BME280;56932;38.402;-96.176;2022-11-15T09:39:58;98220.27;;;18.83;23.72
69689;BME280;56932;38.402;-96.176;2022-11-15T09:42:34;98213.65;;;18.38;23.92
69689;BME280;56932;38.402;-96.176;2022-11-15T09:44:58;98209.23;;;18.52;23.98
69689;BME280;56932;38.402;-96.176;2022-11-15T09:49:40;98212.80;;;18.68;23.81
69689;BME280;56932;38.402;-96.176;2022-11-15T09:52:08;98217.35;;;18.44;23.80
69689;BME280;56932;38.402;-96.176;2022-11-15T09:54:33;98229.21;;;18.65;23.80
69689;BME280;56932;38.402;-96.176;2022-11-15T09:57:03;98231.28;;;18.86;23.84
69689;BME280;56932;38.402;-96.176;2022-11-15T09:59:29;98231.11;;;18.64;23.79
69689;BME280;56932;38.402;-96.176;2022-11-15T10:01:53;98237.28;;;18.56;23.85
69689;BME280;56932;38.402;-96.176;2022-11-15T10:04:13;98229.50;;;18.73;23.67
69689;BME280;56932;38.402;-96.176;2022-11-15T10:06:43;98232.31;;;18.50;23.84
69689;BME280;56932;38.402;-96.176;2022-11-15T10:09:11;98235.43;;;18.41;23.72
69689;BME280;56932;38.402;-96.176;2022-11-15T10:11:33;98241.56;;;18.66;23.68
69689;BME280;56932;38.402;-96.176;2022-11-15T10:13:58;98250.60;;;18.50;23.81
69689;BME280;56932;38.402;-96.176;2022-11-15T10:18:54;98260.50;;;18.56;23.72
69689;BME280;56932;38.402;-96.176;2022-11-15T10:21:17;98265.76;;;18.54;23.73
69689;BME280;56932;38.402;-96.176;2022-11-15T10:23:38;98272.78;;;18.35;23.85
69689;BME280;56932;38.402;-96.176;2022-11-15T10:26:08;98283.77;;;18.21;23.77
69689;BME280;56932;38.402;-96.176;2022-11-15T10:28:30;98287.00;;;18.41;23.79
69689;BME280;56932;38.402;-96.176;2022-11-15T10:30:55;98292.94;;;18.43;23.77
69689;BME280;56932;38.402;-96.176;2022-11-15T10:33:27;98292.75;;;18.17;23.96
69689;BME280;56932;38.402;-96.176;2022-11-15T10:35:45;98294.68;;;18.50;23.66
69689;BME280;56932;38.402;-96.176;2022-11-15T10:38:12;98296.55;;;18.19;23.91
69689;BME280;56932;38.402;-96.176;2022-11-15T10:40:38;98301.36;;;18.23;23.83
69689;BME280;56932;38.402;-96.176;2022-11-15T10:45:31;98305.06;;;18.39;23.68
69689;BME280;56932;38.402;-96.176;2022-11-15T10:47:53;98303.29;;;18.34;23.72
69689;BME280;56932;38.402;-96.176;2022-11-15T10:50:27;98306.41;;;18.55;23.53
69689;BME280;56932;38.402;-96.176;2022-11-15T10:52:46;98303.62;;;18.45;23.64
69689;BME280;56932;38.402;-96.176;2022-11-15T10:57:38;98291.27;;;18.37;23.71
69689;BME280;56932;38.402;-96.176;2022-11-15T11:00:03;98295.10;;;18.71;23.46
69689;BME280;56932;38.402;-96.176;2022-11-15T11:02:30;98293.02;;;19.45;22.84
69689;BME280;56932;38.402;-96.176;2022-11-15T11:04:52;98285.04;;;19.21;23.05
69689;BME280;56932;38.402;-96.176;2022-11-15T11:07:25;98290.04;;;19.75;22.45
69689;BME280;56932;38.402;-96.176;2022-11-15T11:09:43;98296.23;;;19.54;22.45
69689;BME280;56932;38.402;-96.176;2022-11-15T11:12:11;98298.31;;;19.06;22.71
69689;BME280;56932;38.402;-96.176;2022-11-15T11:14:35;98305.07;;;19.64;22.52
69689;BME280;56932;38.402;-96.176;2022-11-15T11:17:05;98313.62;;;18.93;23.35
69689;BME280;56932;38.402;-96.176;2022-11-15T11:19:33;98310.28;;;18.66;23.30
69689;BME280;56932;38.402;-96.176;2022-11-15T11:21:58;98306.34;;;19.20;22.77
69689;BME280;56932;38.402;-96.176;2022-11-15T11:24:21;98307.51;;;19.14;23.02
69689;BME280;56932;38.402;-96.176;2022-11-15T11:26:45;98301.60;;;19.87;22.70
69689;BME280;56932;38.402;-96.176;2022-11-15T11:29:20;98305.07;;;19.42;23.23
69689;BME280;56932;38.402;-96.176;2022-11-15T11:31:46;98310.25;;;17.82;24.82
69689;BME280;56932;38.402;-96.176;2022-11-15T11:34:08;98316.26;;;17.60;25.41
69689;BME280;56932;38.402;-96.176;2022-11-15T11:36:31;98320.26;;;17.84;25.36
69689;BME280;56932;38.402;-96.176;2022-11-15T11:38:57;98321.73;;;18.03;25.50
69689;BME280;56932;38.402;-96.176;2022-11-15T11:41:30;98319.98;;;18.28;24.91
69689;BME280;56932;38.402;-96.176;2022-11-15T11:43:48;98321.43;;;17.76;25.70
69689;BME280;56932;38.402;-96.176;2022-11-15T11:46:14;98319.99;;;17.99;25.55
69689;BME280;56932;38.402;-96.176;2022-11-15T11:48:41;98319.91;;;19.02;24.39
69689;BME280;56932;38.402;-96.176;2022-11-15T11:51:04;98315.79;;;19.81;23.54
69689;BME280;56932;38.402;-96.176;2022-11-15T11:53:27;98319.48;;;20.50;22.73
69689;BME280;56932;38.402;-96.176;2022-11-15T11:55:52;98329.08;;;20.69;22.56
69689;BME280;56932;38.402;-96.176;2022-11-15T11:58:17;98334.91;;;19.43;23.38
69689;BME280;56932;38.402;-96.176;2022-11-15T12:00:41;98338.84;;;19.88;23.32
69689;BME280;56932;38.402;-96.176;2022-11-15T12:03:10;98341.71;;;19.87;23.33
69689;BME280;56932;38.402;-96.176;2022-11-15T12:05:34;98344.55;;;19.69;23.23
69689;BME280;56932;38.402;-96.176;2022-11-15T12:08:14;98344.07;;;20.32;22.69
69689;BME280;56932;38.402;-96.176;2022-11-15T12:10:24;98358.38;;;21.37;22.07
69689;BME280;56932;38.402;-96.176;2022-11-15T12:12:54;98358.70;;;21.59;21.90
69689;BME280;56932;38.402;-96.176;2022-11-15T12:15:15;98364.11;;;20.93;22.45
69689;BME280;56932;38.402;-96.176;2022-11-15T12:17:39;98373.08;;;19.58;23.55
69689;BME280;56932;38.402;-96.176;2022-11-15T12:20:06;98376.10;;;20.87;22.25
69689;BME280;56932;38.402;-96.176;2022-11-15T12:22:36;98376.89;;;20.94;22.16
69689;BME280;56932;38.402;-96.176;2022-11-15T12:24:59;98375.22;;;21.04;22.31
69689;BME280;56932;38.402;-96.176;2022-11-15T12:27:24;98378.85;;;20.80;22.50
69689;BME280;56932;38.402;-96.176;2022-11-15T12:29:48;98383.25;;;21.27;22.10
69689;BME280;56932;38.402;-96.176;2022-11-15T12:32:21;98385.43;;;20.86;22.46
69689;BME280;56932;38.402;-96.176;2022-11-15T12:34:43;98395.64;;;19.93;23.16
69689;BME280;56932;38.402;-96.176;2022-11-15T12:37:02;98403.12;;;20.59;22.57
69689;BME280;56932;38.402;-96.176;2022-11-15T12:49:23;98418.84;;;20.05;22.93
69689;BME280;56932;38.402;-96.176;2022-11-15T12:56:26;98427.50;;;20.00;22.91
69689;BME280;56932;38.402;-96.176;2022-11-15T12:58:55;98427.19;;;20.02;23.04